createdAt,value
2023-01-20T00:00:44.536Z,19.80
2023-01-20T00:05:52.897Z,20.83
2023-01-20T00:10:54.760Z,23.08
2023-01-20T00:15:56.388Z,23.60
2023-01-20T00:21:05.441Z,32.28
2023-01-20T00:26:09.440Z,31.85
2023-01-20T00:31:25.392Z,29.40
2023-01-20T00:36:28.345Z,21.13
2023-01-20T00:41:30.239Z,29.90
2023-01-20T00:46:31.819Z,23.08
2023-01-20T00:51:33.243Z,24.98
2023-01-20T00:56:34.627Z,30.77
2023-01-20T01:01:36.554Z,30.48
2023-01-20T01:06:39.545Z,30.85
2023-01-20T01:11:40.926Z,32.25
2023-01-20T01:16:42.620Z,34.50
2023-01-20T01:21:44.179Z,30.42
2023-01-20T01:26:45.675Z,28.90
2023-01-20T01:31:47.178Z,29.50
2023-01-20T01:36:48.680Z,31.23
2023-01-20T01:41:50.246Z,20.92
2023-01-20T01:46:51.643Z,22.63
2023-01-20T01:52:01.275Z,18.27
2023-01-20T01:57:03.699Z,22.40
2023-01-20T02:02:05.243Z,23.25
2023-01-20T02:07:14.644Z,26.42
2023-01-20T02:12:20.862Z,26.23
2023-01-20T02:17:36.144Z,17.30
2023-01-20T02:23:07.483Z,28.42
2023-01-20T02:28:45.562Z,24.98
2023-01-20T02:34:10.807Z,29.33
2023-01-20T02:39:27.282Z,27.10
2023-01-20T02:44:39.145Z,25.83
2023-01-20T02:49:45.666Z,32.58
2023-01-20T02:54:51.957Z,34.58
2023-01-20T02:59:56.834Z,35.27
2023-01-20T03:05:04.777Z,31.67
2023-01-20T03:10:12.939Z,33.97
2023-01-20T03:15:16.420Z,42.67
2023-01-20T03:20:18.221Z,40.22
2023-01-20T03:25:20.544Z,41.13
2023-01-20T03:30:22.726Z,39.63
2023-01-20T03:35:24.632Z,47.35
2023-01-20T03:40:31.776Z,54.33
2023-01-20T03:45:52.723Z,55.38
2023-01-20T03:50:58.507Z,53.95
2023-01-20T03:56:19.734Z,45.10
2023-01-20T04:01:24.340Z,49.15
2023-01-20T04:06:27.783Z,55.85
2023-01-20T04:11:29.368Z,44.55
2023-01-20T04:16:30.773Z,43.75
2023-01-20T04:21:40.839Z,45.83
2023-01-20T04:26:42.677Z,53.28
2023-01-20T04:31:44.212Z,53.00
2023-01-20T04:36:45.849Z,50.28
2023-01-20T04:41:48.211Z,55.83
2023-01-20T04:46:50.290Z,59.35
2023-01-20T04:51:51.754Z,56.83
2023-01-20T04:56:53.327Z,49.80
2023-01-20T05:01:54.843Z,53.15
2023-01-20T05:06:56.346Z,53.75
2023-01-20T05:11:57.712Z,63.47
2023-01-20T05:16:59.199Z,57.55
2023-01-20T05:22:00.594Z,56.50
2023-01-20T05:27:02.038Z,58.67
2023-01-20T05:32:03.603Z,47.22
2023-01-20T05:37:05.061Z,55.30
2023-01-20T05:42:06.443Z,54.65
2023-01-20T05:47:07.832Z,54.83
2023-01-20T05:52:09.251Z,46.90
2023-01-20T05:57:10.744Z,56.95
2023-01-20T06:02:13.235Z,54.58
2023-01-20T06:07:15.248Z,53.28
2023-01-20T06:12:17.006Z,47.20
2023-01-20T06:17:18.423Z,54.83
2023-01-20T06:22:21.055Z,44.60
2023-01-20T06:27:22.463Z,50.47
2023-01-20T06:32:24.097Z,40.72
2023-01-20T06:37:27.083Z,44.97
2023-01-20T06:42:33.739Z,54.83
2023-01-20T06:47:35.173Z,49.20
2023-01-20T06:52:38.297Z,48.28
2023-01-20T06:57:39.764Z,47.10
2023-01-20T07:02:41.352Z,55.15
2023-01-20T07:07:46.881Z,55.67
2023-01-20T07:12:49.873Z,53.28
2023-01-20T07:17:51.358Z,54.10
2023-01-20T07:22:52.900Z,45.35
2023-01-20T07:27:57.722Z,48.22
2023-01-20T07:32:59.205Z,56.20
2023-01-20T07:38:00.602Z,52.28
2023-01-20T07:43:06.305Z,55.92
2023-01-20T07:48:08.094Z,64.25
2023-01-20T07:53:12.498Z,49.58
2023-01-20T07:58:14.165Z,55.30
2023-01-20T08:03:16.319Z,56.17
2023-01-20T08:08:19.583Z,50.58
2023-01-20T08:13:21.221Z,59.97
2023-01-20T08:18:22.753Z,56.88
2023-01-20T08:23:24.448Z,53.50
2023-01-20T08:28:26.844Z,54.00
2023-01-20T08:33:28.259Z,46.00
2023-01-20T08:38:29.714Z,49.15
2023-01-20T08:43:31.200Z,51.20
2023-01-20T08:48:33.692Z,53.53
2023-01-20T08:53:35.722Z,53.95
2023-01-20T08:58:38.070Z,52.42
2023-01-20T09:03:40.116Z,60.30
2023-01-20T09:08:42.357Z,49.75
2023-01-20T09:13:43.903Z,52.78
2023-01-20T09:18:45.885Z,56.08
2023-01-20T09:23:48.303Z,57.55
2023-01-20T09:28:49.867Z,48.15
2023-01-20T09:33:51.325Z,53.55
2023-01-20T09:39:11.408Z,49.53
2023-01-20T09:44:27.761Z,52.63
2023-01-20T09:50:03.058Z,48.50
2023-01-20T09:55:17.096Z,46.80
2023-01-20T10:00:22.407Z,47.17
2023-01-20T10:05:33.791Z,50.83
2023-01-20T10:10:50.057Z,50.10
2023-01-20T10:15:55.282Z,53.25
2023-01-20T10:21:08.268Z,45.90
2023-01-20T10:26:31.374Z,50.25
2023-01-20T10:31:40.340Z,46.38
2023-01-20T10:36:44.565Z,50.08
2023-01-20T10:41:52.721Z,41.53
2023-01-20T10:47:09.303Z,41.95
2023-01-20T10:57:48.163Z,51.65
2023-01-20T11:02:49.725Z,39.00
2023-01-20T11:07:53.876Z,43.50
2023-01-20T11:12:57.988Z,54.10
2023-01-20T11:18:17.541Z,45.55
2023-01-20T11:23:34.450Z,37.28
2023-01-20T11:29:04.320Z,39.85
2023-01-20T11:34:27.584Z,41.13
2023-01-20T11:39:33.832Z,46.25
2023-01-20T11:44:42.275Z,40.90
2023-01-20T11:49:43.964Z,43.63
2023-01-20T11:54:45.470Z,31.90
2023-01-20T11:59:49.553Z,31.52
2023-01-20T12:04:54.182Z,31.00
2023-01-20T12:10:05.991Z,30.25
2023-01-20T12:15:16.066Z,37.95
2023-01-20T12:20:26.545Z,31.98
2023-01-20T12:25:36.955Z,36.90
2023-01-20T12:30:47.480Z,31.95
2023-01-20T12:36:20.438Z,39.45
2023-01-20T12:41:52.568Z,33.72
2023-01-20T12:47:33.479Z,24.38
2023-01-20T12:52:54.979Z,21.73
2023-01-20T12:58:12.079Z,25.88
2023-01-20T13:03:52.041Z,23.70
2023-01-20T13:09:06.491Z,23.77
2023-01-20T13:14:11.938Z,22.90
2023-01-20T13:19:28.285Z,43.00
2023-01-20T13:24:30.429Z,25.77
2023-01-20T13:29:34.806Z,21.83
2023-01-20T13:34:40.281Z,19.15
2023-01-20T13:39:49.369Z,23.23
2023-01-20T13:45:16.086Z,23.98
2023-01-20T13:50:30.288Z,26.38
2023-01-20T13:55:50.043Z,20.65
2023-01-20T14:01:00.382Z,31.85
2023-01-20T14:06:10.428Z,38.30
2023-01-20T14:11:26.672Z,38.80
2023-01-20T14:16:41.193Z,44.13
2023-01-20T14:21:42.936Z,39.72
2023-01-20T14:26:44.535Z,32.10
2023-01-20T14:31:46.392Z,33.88
2023-01-20T14:36:48.019Z,30.75
2023-01-20T14:41:52.722Z,25.02
2023-01-20T14:46:57.980Z,23.45
2023-01-20T14:52:00.901Z,36.53
2023-01-20T14:57:19.404Z,24.63
2023-01-20T15:02:29.556Z,20.63
2023-01-20T15:07:31.024Z,17.98
2023-01-20T15:12:42.460Z,23.52
2023-01-20T15:18:23.293Z,22.58
2023-01-20T15:23:27.528Z,16.10
2023-01-20T15:28:29.790Z,17.33
2023-01-20T15:33:31.494Z,17.65
2023-01-20T15:38:40.548Z,15.23
2023-01-20T15:43:42.677Z,18.77
2023-01-20T15:48:45.153Z,14.88
2023-01-20T15:53:47.047Z,20.10
2023-01-20T15:58:49.369Z,18.17
2023-01-20T16:03:57.540Z,24.98
2023-01-20T16:09:02.393Z,23.48
2023-01-20T16:14:03.862Z,17.52
2023-01-20T16:19:07.231Z,19.33
2023-01-20T16:24:08.816Z,19.30
2023-01-20T16:29:12.344Z,16.48
2023-01-20T16:34:13.829Z,18.52
2023-01-20T16:39:15.267Z,18.98
2023-01-20T16:44:16.803Z,20.75
2023-01-20T16:49:22.738Z,22.70
2023-01-20T16:54:24.299Z,22.13
2023-01-20T16:59:25.967Z,24.88
2023-01-20T17:04:27.856Z,29.52
2023-01-20T17:09:29.387Z,28.98
2023-01-20T17:14:31.002Z,28.85
2023-01-20T17:19:32.710Z,32.83
2023-01-20T17:24:34.615Z,33.03
2023-01-20T17:29:39.339Z,36.20
2023-01-20T17:34:40.758Z,35.53
2023-01-20T17:39:42.669Z,36.38
2023-01-20T17:44:44.228Z,43.95
2023-01-20T17:49:45.649Z,40.70
2023-01-20T17:54:47.087Z,39.15
2023-01-20T17:59:48.651Z,43.13
2023-01-20T18:04:50.483Z,47.80
2023-01-20T18:09:51.908Z,42.38
2023-01-20T18:14:54.677Z,38.50
2023-01-20T18:19:56.190Z,48.13
2023-01-20T18:24:57.783Z,39.63
2023-01-20T18:30:01.536Z,38.90
2023-01-20T18:35:03.286Z,41.50
2023-01-20T18:40:05.286Z,43.33
2023-01-20T18:45:07.134Z,36.00
2023-01-20T18:50:09.510Z,47.15
2023-01-20T18:55:11.212Z,42.85
2023-01-20T19:00:13.125Z,46.55
2023-01-20T19:05:15.997Z,41.78
2023-01-20T19:10:18.575Z,35.50
2023-01-20T19:15:20.245Z,50.65
2023-01-20T19:20:22.900Z,48.13
2023-01-20T19:25:30.718Z,44.50
2023-01-20T19:30:32.703Z,69.57
2023-01-20T19:35:34.656Z,94.22
2023-01-20T19:40:36.121Z,97.72
2023-01-20T19:45:45.781Z,53.38
2023-01-20T19:50:47.772Z,46.45
2023-01-20T19:55:49.314Z,47.88
2023-01-20T20:00:50.789Z,44.28
2023-01-20T20:05:52.288Z,44.53
2023-01-20T20:10:54.786Z,48.78
2023-01-20T20:16:06.587Z,54.92
2023-01-20T20:21:08.871Z,55.03
2023-01-20T20:26:14.482Z,50.85
2023-01-20T20:31:15.999Z,50.95
2023-01-20T20:36:20.263Z,45.08
2023-01-20T20:41:22.436Z,48.22
2023-01-20T20:46:24.647Z,48.00
2023-01-20T20:51:52.522Z,52.65
2023-01-20T20:56:56.102Z,50.13
2023-01-20T21:01:58.034Z,45.00
2023-01-20T21:06:59.535Z,48.65
2023-01-20T21:12:01.233Z,56.60
2023-01-20T21:17:03.972Z,52.97
2023-01-20T21:22:06.070Z,82.75
2023-01-20T21:27:07.471Z,69.55
2023-01-20T21:32:08.968Z,83.88
2023-01-20T21:37:10.506Z,64.97
2023-01-20T21:42:12.007Z,54.67
2023-01-20T21:47:13.426Z,45.35
2023-01-20T21:52:36.019Z,54.13
2023-01-20T21:57:38.711Z,54.25
2023-01-20T22:02:43.449Z,49.15
2023-01-20T22:07:47.812Z,48.05
2023-01-20T22:12:52.748Z,48.65
2023-01-20T22:17:54.355Z,47.17
2023-01-20T22:22:57.129Z,49.75
2023-01-20T22:27:58.754Z,42.78
2023-01-20T22:33:04.784Z,54.17
2023-01-20T22:38:07.189Z,55.65
2023-01-20T22:43:08.742Z,52.30
2023-01-20T22:48:10.209Z,51.58
2023-01-20T22:53:11.704Z,54.33
2023-01-20T22:58:16.808Z,47.53
2023-01-20T23:03:19.570Z,46.70
2023-01-20T23:08:21.033Z,59.85
2023-01-20T23:13:23.303Z,59.63
2023-01-20T23:18:25.798Z,62.60
2023-01-20T23:23:28.441Z,53.08
2023-01-20T23:28:31.711Z,57.08
2023-01-20T23:33:33.650Z,61.78
2023-01-20T23:38:35.198Z,69.78
2023-01-20T23:43:36.848Z,62.83
2023-01-20T23:48:38.647Z,65.63
2023-01-20T23:53:41.144Z,69.68
2023-01-20T23:58:42.847Z,58.08
